sensor_id;sensor_type;location;lat;lon;timestamp;P1;durP1;ratioP1;P2;durP2;ratioP2
21386;SDS011;10854;45.922;6.716;2023-01-15T00:01:59;5.43;;;3.13;;
21386;SDS011;10854;45.922;6.716;2023-01-15T00:04:27;9.37;;;5.70;;
21386;SDS011;10854;45.922;6.716;2023-01-15T00:06:55;7.60;;;4.77;;
21386;SDS011;10854;45.922;6.716;2023-01-15T00:09:24;14.70;;;8.70;;
21386;SDS011;10854;45.922;6.716;2023-01-15T00:11:53;8.27;;;5.80;;
21386;SDS011;10854;45.922;6.716;2023-01-15T00:14:22;8.47;;;5.00;;
21386;SDS011;10854;45.922;6.716;2023-01-15T00:16:51;9.67;;;6.17;;
21386;SDS011;10854;45.922;6.716;2023-01-15T00:19:19;13.17;;;8.30;;
21386;SDS011;10854;45.922;6.716;2023-01-15T00:21:48;10.50;;;6.43;;
21386;SDS011;10854;45.922;6.716;2023-01-15T00:24:16;9.27;;;5.73;;
21386;SDS011;10854;45.922;6.716;2023-01-15T00:27:03;8.50;;;5.90;;
21386;SDS011;10854;45.922;6.716;2023-01-15T00:29:50;21.13;;;12.57;;
21386;SDS011;10854;45.922;6.716;2023-01-15T00:32:18;18.40;;;11.23;;
21386;SDS011;10854;45.922;6.716;2023-01-15T00:34:46;9.17;;;6.53;;
21386;SDS011;10854;45.922;6.716;2023-01-15T00:37:15;10.27;;;6.30;;
21386;SDS011;10854;45.922;6.716;2023-01-15T00:39:43;7.93;;;5.10;;
21386;SDS011;10854;45.922;6.716;2023-01-15T00:42:12;8.50;;;4.10;;
21386;SDS011;10854;45.922;6.716;2023-01-15T00:44:41;10.90;;;6.70;;
21386;SDS011;10854;45.922;6.716;2023-01-15T00:47:10;17.40;;;9.83;;
21386;SDS011;10854;45.922;6.716;2023-01-15T00:49:41;16.23;;;8.93;;
21386;SDS011;10854;45.922;6.716;2023-01-15T00:52:10;19.60;;;10.40;;
21386;SDS011;10854;45.922;6.716;2023-01-15T00:54:39;6.17;;;3.30;;
21386;SDS011;10854;45.922;6.716;2023-01-15T00:57:07;7.23;;;5.30;;
21386;SDS011;10854;45.922;6.716;2023-01-15T00:59:37;5.30;;;3.00;;
21386;SDS011;10854;45.922;6.716;2023-01-15T01:02:06;4.50;;;2.20;;
21386;SDS011;10854;45.922;6.716;2023-01-15T01:04:34;2.33;;;1.20;;
21386;SDS011;10854;45.922;6.716;2023-01-15T01:07:04;1.30;;;0.90;;
21386;SDS011;10854;45.922;6.716;2023-01-15T01:09:32;2.90;;;1.60;;
21386;SDS011;10854;45.922;6.716;2023-01-15T01:12:04;0.70;;;0.70;;
21386;SDS011;10854;45.922;6.716;2023-01-15T01:14:32;0.73;;;0.60;;
21386;SDS011;10854;45.922;6.716;2023-01-15T01:17:02;3.20;;;0.70;;
21386;SDS011;10854;45.922;6.716;2023-01-15T01:19:31;0.87;;;0.80;;
21386;SDS011;10854;45.922;6.716;2023-01-15T01:22:00;0.80;;;0.70;;
21386;SDS011;10854;45.922;6.716;2023-01-15T01:24:29;0.77;;;0.70;;
21386;SDS011;10854;45.922;6.716;2023-01-15T01:26:59;2.43;;;0.80;;
21386;SDS011;10854;45.922;6.716;2023-01-15T01:29:27;1.43;;;0.70;;
21386;SDS011;10854;45.922;6.716;2023-01-15T01:31:56;4.33;;;1.00;;
21386;SDS011;10854;45.922;6.716;2023-01-15T01:34:24;1.10;;;0.73;;
21386;SDS011;10854;45.922;6.716;2023-01-15T01:36:54;2.20;;;0.60;;
21386;SDS011;10854;45.922;6.716;2023-01-15T01:39:22;0.57;;;0.57;;
21386;SDS011;10854;45.922;6.716;2023-01-15T01:41:50;0.97;;;0.90;;
21386;SDS011;10854;45.922;6.716;2023-01-15T01:47:04;0.70;;;0.70;;
21386;SDS011;10854;45.922;6.716;2023-01-15T01:49:36;0.93;;;0.77;;
21386;SDS011;10854;45.922;6.716;2023-01-15T01:52:07;3.63;;;1.80;;
21386;SDS011;10854;45.922;6.716;2023-01-15T01:54:43;4.27;;;2.30;;
21386;SDS011;10854;45.922;6.716;2023-01-15T01:57:15;3.80;;;1.83;;
21386;SDS011;10854;45.922;6.716;2023-01-15T01:59:46;2.67;;;1.50;;
21386;SDS011;10854;45.922;6.716;2023-01-15T02:02:17;1.50;;;1.10;;
21386;SDS011;10854;45.922;6.716;2023-01-15T02:04:49;1.03;;;0.80;;
21386;SDS011;10854;45.922;6.716;2023-01-15T02:07:18;1.43;;;0.87;;
21386;SDS011;10854;45.922;6.716;2023-01-15T02:09:47;1.00;;;0.90;;
21386;SDS011;10854;45.922;6.716;2023-01-15T02:12:18;1.60;;;1.10;;
21386;SDS011;10854;45.922;6.716;2023-01-15T02:15:17;2.20;;;1.10;;
21386;SDS011;10854;45.922;6.716;2023-01-15T02:20:28;2.27;;;0.80;;
21386;SDS011;10854;45.922;6.716;2023-01-15T02:23:22;0.80;;;0.60;;
21386;SDS011;10854;45.922;6.716;2023-01-15T02:29:18;1.23;;;0.90;;
21386;SDS011;10854;45.922;6.716;2023-01-15T02:32:19;2.23;;;1.20;;
21386;SDS011;10854;45.922;6.716;2023-01-15T02:35:00;2.07;;;1.80;;
21386;SDS011;10854;45.922;6.716;2023-01-15T02:37:34;0.80;;;0.80;;
21386;SDS011;10854;45.922;6.716;2023-01-15T02:40:07;2.03;;;1.40;;
21386;SDS011;10854;45.922;6.716;2023-01-15T02:42:39;1.37;;;1.20;;
21386;SDS011;10854;45.922;6.716;2023-01-15T02:45:09;1.27;;;1.17;;
21386;SDS011;10854;45.922;6.716;2023-01-15T02:47:40;1.73;;;1.10;;
21386;SDS011;10854;45.922;6.716;2023-01-15T02:50:11;1.37;;;1.03;;
21386;SDS011;10854;45.922;6.716;2023-01-15T02:52:43;1.20;;;1.00;;
21386;SDS011;10854;45.922;6.716;2023-01-15T02:55:16;0.97;;;0.90;;
21386;SDS011;10854;45.922;6.716;2023-01-15T02:57:50;4.20;;;1.07;;
21386;SDS011;10854;45.922;6.716;2023-01-15T03:00:21;2.87;;;1.97;;
21386;SDS011;10854;45.922;6.716;2023-01-15T03:02:57;9.53;;;4.00;;
21386;SDS011;10854;45.922;6.716;2023-01-15T03:05:35;17.27;;;6.17;;
21386;SDS011;10854;45.922;6.716;2023-01-15T03:08:09;15.83;;;5.70;;
21386;SDS011;10854;45.922;6.716;2023-01-15T03:10:44;13.33;;;5.27;;
21386;SDS011;10854;45.922;6.716;2023-01-15T03:13:28;4.97;;;2.63;;
21386;SDS011;10854;45.922;6.716;2023-01-15T03:16:04;2.13;;;1.47;;
21386;SDS011;10854;45.922;6.716;2023-01-15T03:24:32;2.20;;;1.67;;
21386;SDS011;10854;45.922;6.716;2023-01-15T03:27:11;8.33;;;3.23;;
21386;SDS011;10854;45.922;6.716;2023-01-15T03:29:41;10.77;;;3.43;;
21386;SDS011;10854;45.922;6.716;2023-01-15T03:32:15;11.23;;;3.70;;
21386;SDS011;10854;45.922;6.716;2023-01-15T03:34:45;6.67;;;3.87;;
21386;SDS011;10854;45.922;6.716;2023-01-15T03:37:19;10.00;;;3.60;;
21386;SDS011;10854;45.922;6.716;2023-01-15T03:39:50;5.60;;;2.07;;
21386;SDS011;10854;45.922;6.716;2023-01-15T03:42:27;5.73;;;1.83;;
21386;SDS011;10854;45.922;6.716;2023-01-15T03:45:16;3.97;;;2.10;;
21386;SDS011;10854;45.922;6.716;2023-01-15T03:50:55;1.17;;;1.03;;
21386;SDS011;10854;45.922;6.716;2023-01-15T03:53:52;3.53;;;1.00;;
21386;SDS011;10854;45.922;6.716;2023-01-15T03:59:02;1.23;;;0.97;;
21386;SDS011;10854;45.922;6.716;2023-01-15T04:01:43;2.03;;;0.90;;
21386;SDS011;10854;45.922;6.716;2023-01-15T04:04:13;2.97;;;1.00;;
21386;SDS011;10854;45.922;6.716;2023-01-15T04:06:43;1.53;;;1.40;;
21386;SDS011;10854;45.922;6.716;2023-01-15T04:09:13;1.40;;;1.10;;
21386;SDS011;10854;45.922;6.716;2023-01-15T04:11:42;3.30;;;2.13;;
21386;SDS011;10854;45.922;6.716;2023-01-15T04:14:11;4.00;;;2.60;;
21386;SDS011;10854;45.922;6.716;2023-01-15T04:16:41;7.27;;;4.03;;
21386;SDS011;10854;45.922;6.716;2023-01-15T04:19:10;3.17;;;2.10;;
21386;SDS011;10854;45.922;6.716;2023-01-15T04:21:39;8.20;;;4.67;;
21386;SDS011;10854;45.922;6.716;2023-01-15T04:24:08;13.07;;;7.50;;
21386;SDS011;10854;45.922;6.716;2023-01-15T04:26:37;6.10;;;3.90;;
21386;SDS011;10854;45.922;6.716;2023-01-15T04:29:05;3.13;;;1.57;;
21386;SDS011;10854;45.922;6.716;2023-01-15T04:31:34;2.53;;;1.60;;
21386;SDS011;10854;45.922;6.716;2023-01-15T04:34:03;4.97;;;2.70;;
21386;SDS011;10854;45.922;6.716;2023-01-15T04:36:31;7.93;;;3.97;;
21386;SDS011;10854;45.922;6.716;2023-01-15T04:39:03;4.73;;;2.87;;
21386;SDS011;10854;45.922;6.716;2023-01-15T04:41:32;3.43;;;1.50;;
21386;SDS011;10854;45.922;6.716;2023-01-15T04:44:19;6.73;;;4.73;;
21386;SDS011;10854;45.922;6.716;2023-01-15T04:46:47;6.03;;;2.60;;
21386;SDS011;10854;45.922;6.716;2023-01-15T04:49:17;5.97;;;3.50;;
21386;SDS011;10854;45.922;6.716;2023-01-15T04:51:46;9.07;;;5.10;;
21386;SDS011;10854;45.922;6.716;2023-01-15T04:54:15;5.37;;;2.37;;
21386;SDS011;10854;45.922;6.716;2023-01-15T04:56:45;3.63;;;2.63;;
21386;SDS011;10854;45.922;6.716;2023-01-15T04:59:17;5.60;;;3.07;;
21386;SDS011;10854;45.922;6.716;2023-01-15T05:01:48;3.77;;;2.83;;
21386;SDS011;10854;45.922;6.716;2023-01-15T05:04:29;5.57;;;3.57;;
21386;SDS011;10854;45.922;6.716;2023-01-15T05:06:59;5.53;;;3.00;;
21386;SDS011;10854;45.922;6.716;2023-01-15T05:09:28;4.50;;;2.50;;
21386;SDS011;10854;45.922;6.716;2023-01-15T05:11:57;3.73;;;1.90;;
21386;SDS011;10854;45.922;6.716;2023-01-15T05:14:25;8.17;;;5.50;;
21386;SDS011;10854;45.922;6.716;2023-01-15T05:16:54;8.87;;;4.90;;
21386;SDS011;10854;45.922;6.716;2023-01-15T05:19:22;2.60;;;2.10;;
21386;SDS011;10854;45.922;6.716;2023-01-15T05:21:51;4.90;;;2.47;;
21386;SDS011;10854;45.922;6.716;2023-01-15T05:24:19;4.90;;;2.43;;
21386;SDS011;10854;45.922;6.716;2023-01-15T05:26:48;3.23;;;2.00;;
21386;SDS011;10854;45.922;6.716;2023-01-15T05:29:16;2.60;;;2.07;;
21386;SDS011;10854;45.922;6.716;2023-01-15T05:31:44;3.37;;;1.80;;
21386;SDS011;10854;45.922;6.716;2023-01-15T05:34:13;5.37;;;3.83;;
21386;SDS011;10854;45.922;6.716;2023-01-15T05:36:41;6.77;;;4.47;;
21386;SDS011;10854;45.922;6.716;2023-01-15T05:39:10;6.83;;;4.87;;
21386;SDS011;10854;45.922;6.716;2023-01-15T05:41:38;4.77;;;3.00;;
21386;SDS011;10854;45.922;6.716;2023-01-15T05:44:17;4.23;;;1.67;;
21386;SDS011;10854;45.922;6.716;2023-01-15T05:46:57;1.70;;;1.30;;
21386;SDS011;10854;45.922;6.716;2023-01-15T05:49:36;1.67;;;1.40;;
21386;SDS011;10854;45.922;6.716;2023-01-15T05:52:05;2.60;;;1.80;;
21386;SDS011;10854;45.922;6.716;2023-01-15T05:54:35;2.20;;;2.00;;
21386;SDS011;10854;45.922;6.716;2023-01-15T05:57:03;3.77;;;2.50;;
21386;SDS011;10854;45.922;6.716;2023-01-15T05:59:32;3.50;;;2.20;;
21386;SDS011;10854;45.922;6.716;2023-01-15T06:02:00;10.13;;;7.43;;
21386;SDS011;10854;45.922;6.716;2023-01-15T06:04:30;5.97;;;4.90;;
21386;SDS011;10854;45.922;6.716;2023-01-15T06:06:58;3.53;;;3.20;;
21386;SDS011;10854;45.922;6.716;2023-01-15T06:09:27;3.30;;;3.00;;
21386;SDS011;10854;45.922;6.716;2023-01-15T06:11:56;3.47;;;2.97;;
21386;SDS011;10854;45.922;6.716;2023-01-15T06:14:25;6.13;;;4.33;;
21386;SDS011;10854;45.922;6.716;2023-01-15T06:16:54;6.17;;;4.73;;
21386;SDS011;10854;45.922;6.716;2023-01-15T06:19:22;7.13;;;5.10;;
21386;SDS011;10854;45.922;6.716;2023-01-15T06:21:51;5.77;;;4.50;;
21386;SDS011;10854;45.922;6.716;2023-01-15T06:24:19;7.60;;;4.80;;
21386;SDS011;10854;45.922;6.716;2023-01-15T06:26:47;8.57;;;7.30;;
21386;SDS011;10854;45.922;6.716;2023-01-15T06:29:16;7.00;;;5.53;;
21386;SDS011;10854;45.922;6.716;2023-01-15T06:31:46;5.80;;;4.70;;
21386;SDS011;10854;45.922;6.716;2023-01-15T06:34:15;6.90;;;5.03;;
21386;SDS011;10854;45.922;6.716;2023-01-15T06:36:44;8.00;;;4.93;;
21386;SDS011;10854;45.922;6.716;2023-01-15T06:39:12;4.37;;;3.40;;
21386;SDS011;10854;45.922;6.716;2023-01-15T06:41:41;5.40;;;4.10;;
21386;SDS011;10854;45.922;6.716;2023-01-15T06:44:48;6.33;;;3.80;;
21386;SDS011;10854;45.922;6.716;2023-01-15T06:47:35;4.07;;;3.37;;
21386;SDS011;10854;45.922;6.716;2023-01-15T06:50:04;6.47;;;3.90;;
21386;SDS011;10854;45.922;6.716;2023-01-15T06:52:32;4.27;;;3.03;;
21386;SDS011;10854;45.922;6.716;2023-01-15T06:55:01;13.03;;;7.03;;
21386;SDS011;10854;45.922;6.716;2023-01-15T06:57:29;4.00;;;2.30;;
21386;SDS011;10854;45.922;6.716;2023-01-15T06:59:58;4.53;;;2.70;;
21386;SDS011;10854;45.922;6.716;2023-01-15T07:02:26;5.30;;;3.70;;
21386;SDS011;10854;45.922;6.716;2023-01-15T07:04:55;8.87;;;5.50;;
21386;SDS011;10854;45.922;6.716;2023-01-15T07:07:23;7.13;;;4.90;;
21386;SDS011;10854;45.922;6.716;2023-01-15T07:09:52;6.53;;;4.87;;
21386;SDS011;10854;45.922;6.716;2023-01-15T07:12:20;9.10;;;4.80;;
21386;SDS011;10854;45.922;6.716;2023-01-15T07:14:49;7.30;;;5.13;;
21386;SDS011;10854;45.922;6.716;2023-01-15T07:17:18;11.50;;;6.33;;
21386;SDS011;10854;45.922;6.716;2023-01-15T07:19:47;9.67;;;5.47;;
21386;SDS011;10854;45.922;6.716;2023-01-15T07:22:16;12.07;;;5.83;;
21386;SDS011;10854;45.922;6.716;2023-01-15T07:24:44;8.07;;;4.47;;
21386;SDS011;10854;45.922;6.716;2023-01-15T07:27:13;5.37;;;4.27;;
21386;SDS011;10854;45.922;6.716;2023-01-15T07:29:41;5.20;;;3.83;;
21386;SDS011;10854;45.922;6.716;2023-01-15T07:32:09;3.43;;;2.60;;
21386;SDS011;10854;45.922;6.716;2023-01-15T07:34:38;2.87;;;2.17;;
21386;SDS011;10854;45.922;6.716;2023-01-15T07:37:07;4.27;;;3.23;;
21386;SDS011;10854;45.922;6.716;2023-01-15T07:39:35;11.53;;;6.80;;
21386;SDS011;10854;45.922;6.716;2023-01-15T07:42:05;6.10;;;4.30;;
21386;SDS011;10854;45.922;6.716;2023-01-15T07:44:54;4.43;;;3.23;;
21386;SDS011;10854;45.922;6.716;2023-01-15T07:47:41;5.00;;;2.97;;
21386;SDS011;10854;45.922;6.716;2023-01-15T07:50:28;4.83;;;3.70;;
21386;SDS011;10854;45.922;6.716;2023-01-15T07:52:57;4.47;;;3.20;;
21386;SDS011;10854;45.922;6.716;2023-01-15T07:55:25;5.97;;;5.00;;
21386;SDS011;10854;45.922;6.716;2023-01-15T07:57:54;6.93;;;5.77;;
21386;SDS011;10854;45.922;6.716;2023-01-15T08:00:23;13.60;;;9.50;;
21386;SDS011;10854;45.922;6.716;2023-01-15T08:02:52;7.67;;;5.83;;
21386;SDS011;10854;45.922;6.716;2023-01-15T08:05:20;7.37;;;4.37;;
21386;SDS011;10854;45.922;6.716;2023-01-15T08:07:49;4.77;;;3.00;;
21386;SDS011;10854;45.922;6.716;2023-01-15T08:10:17;6.37;;;4.57;;
21386;SDS011;10854;45.922;6.716;2023-01-15T08:12:48;8.20;;;7.33;;
21386;SDS011;10854;45.922;6.716;2023-01-15T08:15:39;4.73;;;4.00;;
21386;SDS011;10854;45.922;6.716;2023-01-15T08:18:10;3.23;;;2.70;;
21386;SDS011;10854;45.922;6.716;2023-01-15T08:20:38;4.20;;;3.40;;
21386;SDS011;10854;45.922;6.716;2023-01-15T08:23:07;5.10;;;3.93;;
21386;SDS011;10854;45.922;6.716;2023-01-15T08:25:37;4.33;;;3.67;;
21386;SDS011;10854;45.922;6.716;2023-01-15T08:28:05;4.07;;;3.60;;
21386;SDS011;10854;45.922;6.716;2023-01-15T08:30:34;5.63;;;4.70;;
21386;SDS011;10854;45.922;6.716;2023-01-15T08:33:03;4.67;;;3.80;;
21386;SDS011;10854;45.922;6.716;2023-01-15T08:35:31;3.93;;;3.53;;
21386;SDS011;10854;45.922;6.716;2023-01-15T08:38:06;3.13;;;2.50;;
21386;SDS011;10854;45.922;6.716;2023-01-15T08:40:35;3.00;;;2.70;;
21386;SDS011;10854;45.922;6.716;2023-01-15T08:43:27;4.87;;;3.60;;
21386;SDS011;10854;45.922;6.716;2023-01-15T08:45:58;4.77;;;3.17;;
21386;SDS011;10854;45.922;6.716;2023-01-15T08:48:29;7.07;;;5.47;;
21386;SDS011;10854;45.922;6.716;2023-01-15T08:50:58;5.63;;;5.00;;
21386;SDS011;10854;45.922;6.716;2023-01-15T08:53:30;7.57;;;5.47;;
21386;SDS011;10854;45.922;6.716;2023-01-15T08:55:58;6.27;;;5.47;;
21386;SDS011;10854;45.922;6.716;2023-01-15T08:58:27;7.63;;;6.23;;
21386;SDS011;10854;45.922;6.716;2023-01-15T09:01:07;11.30;;;7.93;;
21386;SDS011;10854;45.922;6.716;2023-01-15T09:03:37;9.60;;;7.53;;
21386;SDS011;10854;45.922;6.716;2023-01-15T09:06:07;11.10;;;9.43;;
21386;SDS011;10854;45.922;6.716;2023-01-15T09:08:37;11.03;;;9.00;;
21386;SDS011;10854;45.922;6.716;2023-01-15T09:11:06;6.00;;;5.40;;
21386;SDS011;10854;45.922;6.716;2023-01-15T09:13:39;4.97;;;3.87;;
21386;SDS011;10854;45.922;6.716;2023-01-15T09:16:10;2.73;;;2.20;;
21386;SDS011;10854;45.922;6.716;2023-01-15T09:18:39;14.07;;;12.07;;
21386;SDS011;10854;45.922;6.716;2023-01-15T09:21:07;61.87;;;38.30;;
21386;SDS011;10854;45.922;6.716;2023-01-15T09:23:36;20.13;;;13.70;;
21386;SDS011;10854;45.922;6.716;2023-01-15T09:26:05;5.47;;;4.77;;
21386;SDS011;10854;45.922;6.716;2023-01-15T09:28:34;29.07;;;15.90;;
21386;SDS011;10854;45.922;6.716;2023-01-15T09:31:03;16.70;;;10.10;;
21386;SDS011;10854;45.922;6.716;2023-01-15T09:33:31;13.73;;;9.80;;
21386;SDS011;10854;45.922;6.716;2023-01-15T09:35:59;8.00;;;6.80;;
21386;SDS011;10854;45.922;6.716;2023-01-15T09:38:28;7.87;;;7.07;;
21386;SDS011;10854;45.922;6.716;2023-01-15T09:40:58;14.57;;;8.10;;
21386;SDS011;10854;45.922;6.716;2023-01-15T09:46:51;13.70;;;9.03;;
21386;SDS011;10854;45.922;6.716;2023-01-15T09:57:55;35.23;;;23.77;;
21386;SDS011;10854;45.922;6.716;2023-01-15T10:00:28;35.27;;;23.10;;
21386;SDS011;10854;45.922;6.716;2023-01-15T10:05:35;14.60;;;11.53;;
21386;SDS011;10854;45.922;6.716;2023-01-15T10:10:53;10.83;;;8.23;;
21386;SDS011;10854;45.922;6.716;2023-01-15T10:13:28;15.07;;;12.10;;
21386;SDS011;10854;45.922;6.716;2023-01-15T10:16:08;14.10;;;11.80;;
21386;SDS011;10854;45.922;6.716;2023-01-15T10:18:39;28.57;;;24.10;;
21386;SDS011;10854;45.922;6.716;2023-01-15T10:26:39;5.53;;;4.07;;
21386;SDS011;10854;45.922;6.716;2023-01-15T10:29:15;2.87;;;2.23;;
21386;SDS011;10854;45.922;6.716;2023-01-15T10:31:55;4.73;;;2.43;;
21386;SDS011;10854;45.922;6.716;2023-01-15T10:37:11;1.50;;;1.40;;
21386;SDS011;10854;45.922;6.716;2023-01-15T10:40:12;1.00;;;0.90;;
21386;SDS011;10854;45.922;6.716;2023-01-15T10:45:46;1.87;;;1.70;;
21386;SDS011;10854;45.922;6.716;2023-01-15T10:48:33;2.30;;;1.93;;
21386;SDS011;10854;45.922;6.716;2023-01-15T10:51:06;3.17;;;1.40;;
21386;SDS011;10854;45.922;6.716;2023-01-15T10:54:16;1.20;;;1.10;;
21386;SDS011;10854;45.922;6.716;2023-01-15T10:59:45;1.10;;;1.00;;
21386;SDS011;10854;45.922;6.716;2023-01-15T11:02:20;1.30;;;1.10;;
21386;SDS011;10854;45.922;6.716;2023-01-15T11:04:56;1.77;;;1.20;;
21386;SDS011;10854;45.922;6.716;2023-01-15T11:07:33;2.50;;;2.10;;
21386;SDS011;10854;45.922;6.716;2023-01-15T11:10:28;4.57;;;2.00;;
21386;SDS011;10854;45.922;6.716;2023-01-15T11:13:01;1.80;;;1.00;;
21386;SDS011;10854;45.922;6.716;2023-01-15T11:16:12;1.60;;;1.27;;
21386;SDS011;10854;45.922;6.716;2023-01-15T11:19:29;2.70;;;1.70;;
21386;SDS011;10854;45.922;6.716;2023-01-15T11:22:13;2.13;;;1.60;;
21386;SDS011;10854;45.922;6.716;2023-01-15T11:24:57;3.87;;;2.97;;
21386;SDS011;10854;45.922;6.716;2023-01-15T11:27:29;4.73;;;3.20;;
21386;SDS011;10854;45.922;6.716;2023-01-15T11:30:00;11.17;;;7.83;;
21386;SDS011;10854;45.922;6.716;2023-01-15T11:32:31;2.40;;;2.10;;
21386;SDS011;10854;45.922;6.716;2023-01-15T11:35:09;9.73;;;8.23;;
21386;SDS011;10854;45.922;6.716;2023-01-15T11:37:42;2.33;;;1.70;;
21386;SDS011;10854;45.922;6.716;2023-01-15T11:40:14;3.53;;;2.70;;
21386;SDS011;10854;45.922;6.716;2023-01-15T11:42:48;5.20;;;3.40;;
21386;SDS011;10854;45.922;6.716;2023-01-15T11:45:48;4.83;;;3.57;;
21386;SDS011;10854;45.922;6.716;2023-01-15T11:48:44;11.40;;;8.50;;
21386;SDS011;10854;45.922;6.716;2023-01-15T11:51:37;6.53;;;5.80;;
21386;SDS011;10854;45.922;6.716;2023-01-15T11:54:13;7.13;;;5.43;;
21386;SDS011;10854;45.922;6.716;2023-01-15T11:56:44;2.90;;;2.17;;
21386;SDS011;10854;45.922;6.716;2023-01-15T11:59:13;2.23;;;1.90;;
21386;SDS011;10854;45.922;6.716;2023-01-15T12:01:47;3.30;;;2.63;;
21386;SDS011;10854;45.922;6.716;2023-01-15T12:04:26;4.67;;;2.77;;
21386;SDS011;10854;45.922;6.716;2023-01-15T12:07:12;5.27;;;3.13;;
21386;SDS011;10854;45.922;6.716;2023-01-15T12:19:17;4.00;;;2.73;;
21386;SDS011;10854;45.922;6.716;2023-01-15T12:30:02;3.17;;;2.50;;
21386;SDS011;10854;45.922;6.716;2023-01-15T12:32:46;2.93;;;2.07;;
21386;SDS011;10854;45.922;6.716;2023-01-15T12:35:27;3.70;;;2.00;;
21386;SDS011;10854;45.922;6.716;2023-01-15T12:38:19;3.87;;;2.10;;
21386;SDS011;10854;45.922;6.716;2023-01-15T12:41:08;5.33;;;1.60;;
21386;SDS011;10854;45.922;6.716;2023-01-15T12:43:43;2.37;;;1.90;;
21386;SDS011;10854;45.922;6.716;2023-01-15T12:46:35;1.73;;;1.40;;
21386;SDS011;10854;45.922;6.716;2023-01-15T12:49:29;1.97;;;1.30;;
21386;SDS011;10854;45.922;6.716;2023-01-15T12:52:04;1.67;;;1.20;;
21386;SDS011;10854;45.922;6.716;2023-01-15T12:54:48;1.10;;;1.00;;
21386;SDS011;10854;45.922;6.716;2023-01-15T12:57:37;1.53;;;1.20;;
21386;SDS011;10854;45.922;6.716;2023-01-15T13:00:14;3.27;;;1.50;;
21386;SDS011;10854;45.922;6.716;2023-01-15T13:02:59;2.47;;;1.60;;
21386;SDS011;10854;45.922;6.716;2023-01-15T13:05:42;2.63;;;1.73;;
21386;SDS011;10854;45.922;6.716;2023-01-15T13:08:26;3.60;;;1.20;;
21386;SDS011;10854;45.922;6.716;2023-01-15T13:10:57;3.53;;;2.60;;
21386;SDS011;10854;45.922;6.716;2023-01-15T13:13:36;6.80;;;4.77;;
21386;SDS011;10854;45.922;6.716;2023-01-15T13:16:18;2.63;;;1.87;;
21386;SDS011;10854;45.922;6.716;2023-01-15T13:21:32;2.93;;;1.40;;
21386;SDS011;10854;45.922;6.716;2023-01-15T13:27:05;1.90;;;1.60;;
21386;SDS011;10854;45.922;6.716;2023-01-15T13:29:50;2.93;;;2.20;;
21386;SDS011;10854;45.922;6.716;2023-01-15T13:32:42;3.33;;;2.00;;
21386;SDS011;10854;45.922;6.716;2023-01-15T13:35:26;2.50;;;1.70;;
21386;SDS011;10854;45.922;6.716;2023-01-15T13:38:04;1.20;;;1.00;;
21386;SDS011;10854;45.922;6.716;2023-01-15T13:40:43;1.67;;;1.20;;
21386;SDS011;10854;45.922;6.716;2023-01-15T13:43:25;1.23;;;1.00;;
21386;SDS011;10854;45.922;6.716;2023-01-15T13:46:01;1.57;;;1.10;;
21386;SDS011;10854;45.922;6.716;2023-01-15T13:48:46;1.30;;;1.20;;
21386;SDS011;10854;45.922;6.716;2023-01-15T13:51:27;3.10;;;1.30;;
21386;SDS011;10854;45.922;6.716;2023-01-15T13:53:58;1.30;;;1.20;;
21386;SDS011;10854;45.922;6.716;2023-01-15T13:56:29;1.60;;;0.93;;
21386;SDS011;10854;45.922;6.716;2023-01-15T13:59:01;1.00;;;0.90;;
21386;SDS011;10854;45.922;6.716;2023-01-15T14:01:33;0.70;;;0.70;;
21386;SDS011;10854;45.922;6.716;2023-01-15T14:06:45;0.80;;;0.80;;
21386;SDS011;10854;45.922;6.716;2023-01-15T14:12:05;1.47;;;1.13;;
21386;SDS011;10854;45.922;6.716;2023-01-15T14:23:15;3.47;;;3.17;;
21386;SDS011;10854;45.922;6.716;2023-01-15T14:28:55;8.73;;;5.10;;
21386;SDS011;10854;45.922;6.716;2023-01-15T14:31:43;6.73;;;5.33;;
21386;SDS011;10854;45.922;6.716;2023-01-15T14:34:18;6.93;;;4.80;;
21386;SDS011;10854;45.922;6.716;2023-01-15T14:42:33;4.40;;;3.37;;
21386;SDS011;10854;45.922;6.716;2023-01-15T14:45:28;3.07;;;2.23;;
21386;SDS011;10854;45.922;6.716;2023-01-15T14:51:12;4.70;;;3.37;;
21386;SDS011;10854;45.922;6.716;2023-01-15T14:54:01;3.70;;;2.40;;
21386;SDS011;10854;45.922;6.716;2023-01-15T14:56:48;5.03;;;3.37;;
21386;SDS011;10854;45.922;6.716;2023-01-15T14:59:24;2.10;;;1.90;;
21386;SDS011;10854;45.922;6.716;2023-01-15T15:02:01;2.10;;;1.90;;
21386;SDS011;10854;45.922;6.716;2023-01-15T15:07:15;2.57;;;1.50;;
21386;SDS011;10854;45.922;6.716;2023-01-15T15:09:54;1.90;;;1.60;;
21386;SDS011;10854;45.922;6.716;2023-01-15T15:12:32;2.40;;;1.60;;
21386;SDS011;10854;45.922;6.716;2023-01-15T15:17:59;2.00;;;1.50;;
21386;SDS011;10854;45.922;6.716;2023-01-15T15:20:35;3.87;;;3.00;;
21386;SDS011;10854;45.922;6.716;2023-01-15T15:26:25;5.07;;;4.00;;
21386;SDS011;10854;45.922;6.716;2023-01-15T15:31:24;41.37;;;18.50;;
21386;SDS011;10854;45.922;6.716;2023-01-15T15:33:54;7.17;;;4.97;;
21386;SDS011;10854;45.922;6.716;2023-01-15T15:36:28;34.13;;;17.53;;
21386;SDS011;10854;45.922;6.716;2023-01-15T15:38:59;3.27;;;2.53;;
21386;SDS011;10854;45.922;6.716;2023-01-15T15:41:31;2.97;;;2.63;;
21386;SDS011;10854;45.922;6.716;2023-01-15T15:44:29;3.87;;;3.43;;
21386;SDS011;10854;45.922;6.716;2023-01-15T15:47:24;5.17;;;4.20;;
21386;SDS011;10854;45.922;6.716;2023-01-15T15:53:01;7.20;;;4.53;;
21386;SDS011;10854;45.922;6.716;2023-01-15T15:55:36;10.93;;;7.10;;
21386;SDS011;10854;45.922;6.716;2023-01-15T15:58:11;47.50;;;27.83;;
21386;SDS011;10854;45.922;6.716;2023-01-15T16:00:54;155.17;;;99.17;;
21386;SDS011;10854;45.922;6.716;2023-01-15T16:03:25;100.87;;;65.70;;
21386;SDS011;10854;45.922;6.716;2023-01-15T16:05:58;8.13;;;6.33;;
21386;SDS011;10854;45.922;6.716;2023-01-15T16:08:29;5.87;;;4.07;;
21386;SDS011;10854;45.922;6.716;2023-01-15T16:11:01;9.70;;;7.30;;
21386;SDS011;10854;45.922;6.716;2023-01-15T16:13:40;11.53;;;7.77;;
21386;SDS011;10854;45.922;6.716;2023-01-15T16:16:14;9.50;;;7.07;;
21386;SDS011;10854;45.922;6.716;2023-01-15T16:18:44;14.87;;;11.50;;
21386;SDS011;10854;45.922;6.716;2023-01-15T16:21:17;34.30;;;22.23;;
21386;SDS011;10854;45.922;6.716;2023-01-15T16:23:56;50.13;;;32.97;;
21386;SDS011;10854;45.922;6.716;2023-01-15T16:29:05;129.60;;;72.97;;
21386;SDS011;10854;45.922;6.716;2023-01-15T16:31:46;27.83;;;19.07;;
21386;SDS011;10854;45.922;6.716;2023-01-15T16:34:18;32.90;;;21.70;;
21386;SDS011;10854;45.922;6.716;2023-01-15T16:36:49;45.43;;;31.67;;
21386;SDS011;10854;45.922;6.716;2023-01-15T16:42:32;19.30;;;14.20;;
21386;SDS011;10854;45.922;6.716;2023-01-15T16:45:16;156.37;;;67.63;;
21386;SDS011;10854;45.922;6.716;2023-01-15T16:51:23;66.87;;;34.70;;
21386;SDS011;10854;45.922;6.716;2023-01-15T16:54:01;39.70;;;24.90;;
21386;SDS011;10854;45.922;6.716;2023-01-15T16:59:04;26.30;;;17.10;;
21386;SDS011;10854;45.922;6.716;2023-01-15T17:01:44;29.70;;;19.10;;
21386;SDS011;10854;45.922;6.716;2023-01-15T17:04:36;28.70;;;20.23;;
21386;SDS011;10854;45.922;6.716;2023-01-15T17:09:47;17.40;;;13.03;;
21386;SDS011;10854;45.922;6.716;2023-01-15T17:12:26;18.30;;;14.67;;
21386;SDS011;10854;45.922;6.716;2023-01-15T17:17:47;26.97;;;20.77;;
21386;SDS011;10854;45.922;6.716;2023-01-15T17:20:17;22.60;;;14.93;;
21386;SDS011;10854;45.922;6.716;2023-01-15T17:22:47;32.10;;;21.57;;
21386;SDS011;10854;45.922;6.716;2023-01-15T17:25:25;56.37;;;36.10;;
21386;SDS011;10854;45.922;6.716;2023-01-15T17:27:58;50.07;;;33.53;;
21386;SDS011;10854;45.922;6.716;2023-01-15T17:30:29;49.60;;;33.20;;
21386;SDS011;10854;45.922;6.716;2023-01-15T17:33:01;40.60;;;28.37;;
21386;SDS011;10854;45.922;6.716;2023-01-15T17:35:32;40.83;;;28.63;;
21386;SDS011;10854;45.922;6.716;2023-01-15T17:38:03;47.87;;;30.03;;